createdAt,value
2023-06-04T00:02:11.569Z,13.80
2023-06-04T00:04:40.958Z,13.80
2023-06-04T00:07:07.868Z,13.80
2023-06-04T00:09:34.724Z,13.70
2023-06-04T00:12:01.616Z,13.80
2023-06-04T00:14:28.449Z,13.70
2023-06-04T00:16:55.381Z,13.70
2023-06-04T00:19:22.329Z,13.70
2023-06-04T00:21:49.115Z,13.60
2023-06-04T00:24:15.954Z,13.60
2023-06-04T00:26:42.741Z,13.50
2023-06-04T00:29:09.636Z,13.50
2023-06-04T00:31:36.823Z,13.50
2023-06-04T00:34:06.984Z,13.50
2023-06-04T00:36:33.829Z,13.40
2023-06-04T00:39:00.734Z,13.30
2023-06-04T00:41:27.520Z,13.30
2023-06-04T00:43:57.545Z,13.30
2023-06-04T00:46:27.931Z,13.20
2023-06-04T00:48:55.353Z,13.20
2023-06-04T00:51:22.559Z,13.20
2023-06-04T00:53:52.758Z,13.20
2023-06-04T00:56:19.917Z,13.10
2023-06-04T00:58:47.464Z,13.20
2023-06-04T01:01:32.330Z,13.10
2023-06-04T01:03:59.491Z,13.10
2023-06-04T01:06:39.600Z,13.00
2023-06-04T01:09:06.925Z,13.10
2023-06-04T01:11:38.080Z,13.00
2023-06-04T01:14:06.233Z,13.00
2023-06-04T01:16:39.848Z,12.90
2023-06-04T01:19:10.016Z,12.90
2023-06-04T01:21:39.768Z,12.90
2023-06-04T01:24:08.264Z,12.90
2023-06-04T01:26:35.178Z,12.80
2023-06-04T01:29:02.010Z,12.80
2023-06-04T01:31:29.651Z,12.80
2023-06-04T01:33:58.876Z,12.80
2023-06-04T01:36:26.060Z,12.80
2023-06-04T01:38:52.882Z,12.70
2023-06-04T01:41:19.666Z,12.70
2023-06-04T01:43:46.444Z,12.70
2023-06-04T01:46:13.198Z,12.70
2023-06-04T01:48:40.921Z,12.60
2023-06-04T01:51:07.998Z,12.60
2023-06-04T01:53:34.918Z,12.60
2023-06-04T01:56:02.317Z,12.60
2023-06-04T01:58:30.247Z,12.50
2023-06-04T02:01:01.347Z,12.50
2023-06-04T02:03:29.029Z,12.50
2023-06-04T02:05:55.931Z,12.50
2023-06-04T02:08:22.824Z,12.50
2023-06-04T02:10:49.864Z,12.60
2023-06-04T02:13:17.218Z,12.50
2023-06-04T02:15:44.106Z,12.40
2023-06-04T02:18:17.532Z,12.40
2023-06-04T02:20:48.268Z,12.40
2023-06-04T02:23:16.067Z,12.30
2023-06-04T02:25:45.520Z,12.30
2023-06-04T02:28:12.488Z,12.30
2023-06-04T02:30:39.254Z,12.20
2023-06-04T02:33:07.132Z,12.20
2023-06-04T02:35:34.023Z,12.20
2023-06-04T02:38:01.066Z,12.20
2023-06-04T02:40:28.493Z,12.10
2023-06-04T02:42:56.136Z,12.00
2023-06-04T02:45:23.714Z,12.00
2023-06-04T02:47:50.587Z,12.00
2023-06-04T02:50:17.616Z,12.10
2023-06-04T02:52:44.692Z,12.00
2023-06-04T02:55:13.358Z,11.90
2023-06-04T02:57:45.980Z,11.80
2023-06-04T03:00:15.317Z,11.70
2023-06-04T03:02:47.288Z,11.70
2023-06-04T03:05:15.744Z,11.60
2023-06-04T03:07:44.427Z,11.60
2023-06-04T03:10:12.046Z,11.60
2023-06-04T03:12:38.902Z,11.60
2023-06-04T03:15:06.430Z,11.50
2023-06-04T03:17:33.486Z,11.50
2023-06-04T03:20:00.403Z,11.60
2023-06-04T03:22:27.223Z,11.60
2023-06-04T03:24:54.044Z,11.60
2023-06-04T03:27:21.280Z,11.60
2023-06-04T03:29:49.245Z,11.60
2023-06-04T03:32:17.306Z,11.60
2023-06-04T03:34:44.478Z,11.50
2023-06-04T03:37:11.393Z,11.50
2023-06-04T03:39:38.293Z,11.40
2023-06-04T03:42:06.063Z,11.40
2023-06-04T03:44:32.872Z,11.40
2023-06-04T03:46:59.814Z,11.40
2023-06-04T03:49:26.666Z,11.40
2023-06-04T03:51:53.465Z,11.40
2023-06-04T03:54:20.403Z,11.40
2023-06-04T03:56:47.502Z,11.40
2023-06-04T03:59:14.943Z,11.30
2023-06-04T04:01:42.640Z,11.30
2023-06-04T04:04:09.473Z,11.30
2023-06-04T04:06:36.626Z,11.30
2023-06-04T04:09:04.603Z,11.30
2023-06-04T04:11:31.417Z,11.20
2023-06-04T04:13:58.830Z,11.20
2023-06-04T04:16:26.636Z,11.20
2023-06-04T04:18:53.536Z,11.20
2023-06-04T04:21:20.414Z,11.20
2023-06-04T04:23:47.290Z,11.30
2023-06-04T04:26:17.605Z,11.30
2023-06-04T04:28:44.744Z,11.30
2023-06-04T04:31:11.826Z,11.40
2023-06-04T04:33:40.843Z,11.40
2023-06-04T04:36:09.907Z,11.40
2023-06-04T04:38:37.425Z,11.40
2023-06-04T04:41:04.251Z,11.50
2023-06-04T04:43:35.418Z,11.40
2023-06-04T04:46:02.313Z,11.50
2023-06-04T04:48:29.074Z,11.50
2023-06-04T04:50:55.956Z,11.50
2023-06-04T04:53:22.889Z,11.50
2023-06-04T04:55:49.943Z,11.60
2023-06-04T04:58:16.853Z,11.60
2023-06-04T05:00:43.787Z,11.70
2023-06-04T05:03:10.806Z,11.60
2023-06-04T05:05:37.684Z,11.70
2023-06-04T05:08:04.854Z,11.70
2023-06-04T05:10:31.767Z,11.70
2023-06-04T05:13:00.184Z,11.80
2023-06-04T05:15:27.882Z,11.80
2023-06-04T05:17:54.919Z,11.90
2023-06-04T05:20:23.347Z,11.90
2023-06-04T05:22:50.286Z,11.90
2023-06-04T05:25:17.535Z,11.90
2023-06-04T05:27:44.380Z,12.00
2023-06-04T05:30:12.265Z,12.00
2023-06-04T05:32:42.175Z,12.00
2023-06-04T05:35:09.796Z,12.00
2023-06-04T05:37:39.159Z,12.00
2023-06-04T05:40:08.331Z,12.10
2023-06-04T05:42:35.189Z,12.10
2023-06-04T05:45:02.077Z,12.10
2023-06-04T05:47:30.996Z,12.10
2023-06-04T05:49:58.178Z,12.20
2023-06-04T05:52:25.178Z,12.30
2023-06-04T05:54:52.206Z,12.40
2023-06-04T05:57:18.994Z,12.40
2023-06-04T05:59:46.887Z,12.40
2023-06-04T06:02:14.417Z,12.50
2023-06-04T06:04:41.569Z,12.50
2023-06-04T06:07:08.947Z,12.50
2023-06-04T06:09:36.792Z,12.50
2023-06-04T06:12:03.892Z,12.60
2023-06-04T06:14:31.158Z,12.60
2023-06-04T06:16:58.181Z,12.60
2023-06-04T06:19:24.950Z,12.70
2023-06-04T06:21:51.796Z,12.70
2023-06-04T06:24:18.597Z,12.70
2023-06-04T06:26:45.387Z,12.70
2023-06-04T06:29:12.138Z,12.80
2023-06-04T06:31:39.087Z,12.80
2023-06-04T06:34:06.484Z,12.80
2023-06-04T06:36:34.117Z,12.90
2023-06-04T06:39:01.092Z,13.00
2023-06-04T06:41:27.989Z,13.10
2023-06-04T06:43:55.009Z,13.10
2023-06-04T06:46:22.036Z,13.20
2023-06-04T06:48:49.805Z,13.20
2023-06-04T06:51:16.642Z,13.30
2023-06-04T06:53:43.928Z,13.30
2023-06-04T06:56:10.760Z,13.40
2023-06-04T06:58:37.543Z,13.50
2023-06-04T07:01:04.507Z,13.60
2023-06-04T07:03:32.488Z,13.60
2023-06-04T07:05:59.664Z,13.70
2023-06-04T07:08:26.942Z,13.70
2023-06-04T07:10:53.731Z,13.80
2023-06-04T07:13:21.007Z,13.90
2023-06-04T07:15:48.289Z,13.80
2023-06-04T07:18:15.592Z,13.90
2023-06-04T07:20:43.147Z,13.90
2023-06-04T07:23:10.157Z,14.00
2023-06-04T07:25:37.730Z,14.10
2023-06-04T07:28:05.262Z,14.20
2023-06-04T07:30:36.113Z,14.20
2023-06-04T07:33:03.539Z,14.20
2023-06-04T07:35:30.664Z,14.20
2023-06-04T07:37:57.462Z,14.30
2023-06-04T07:40:24.462Z,14.40
2023-06-04T07:42:51.263Z,14.40
2023-06-04T07:45:18.158Z,14.50
2023-06-04T07:47:45.462Z,14.60
2023-06-04T07:50:12.464Z,14.70
2023-06-04T07:52:39.554Z,14.80
2023-06-04T07:55:06.980Z,14.80
2023-06-04T07:57:33.726Z,14.90
2023-06-04T08:00:01.017Z,14.80
2023-06-04T08:02:28.088Z,14.90
2023-06-04T08:04:55.344Z,15.00
2023-06-04T08:07:22.139Z,15.00
2023-06-04T08:09:49.153Z,15.00
2023-06-04T08:12:17.344Z,15.10
2023-06-04T08:14:44.331Z,15.20
2023-06-04T08:17:11.217Z,15.30
2023-06-04T08:19:37.988Z,15.40
2023-06-04T08:22:05.382Z,15.50
2023-06-04T08:24:32.228Z,15.50
2023-06-04T08:26:59.072Z,15.50
2023-06-04T08:29:25.943Z,15.60
2023-06-04T08:31:52.916Z,15.60
2023-06-04T08:34:19.807Z,15.70
2023-06-04T08:36:47.647Z,15.80
2023-06-04T08:39:14.693Z,15.80
2023-06-04T08:41:52.554Z,15.90
2023-06-04T08:44:19.488Z,15.90
2023-06-04T08:46:46.408Z,16.10
2023-06-04T08:49:13.877Z,16.10
2023-06-04T08:51:41.832Z,16.10
2023-06-04T08:54:09.611Z,16.30
2023-06-04T08:56:36.904Z,16.30
2023-06-04T08:59:10.564Z,16.40
2023-06-04T09:01:38.446Z,16.50
2023-06-04T09:04:08.656Z,16.50
2023-06-04T09:06:39.100Z,16.70
2023-06-04T09:09:07.109Z,16.70
2023-06-04T09:11:37.794Z,16.90
2023-06-04T09:14:07.696Z,17.00
2023-06-04T09:16:50.161Z,17.10
2023-06-04T09:19:17.573Z,17.20
2023-06-04T09:21:50.866Z,17.30
2023-06-04T09:24:18.010Z,17.40
2023-06-04T09:26:44.845Z,17.50
2023-06-04T09:29:11.764Z,17.50
2023-06-04T09:31:39.555Z,17.60
2023-06-04T09:34:06.881Z,17.70
2023-06-04T09:36:34.493Z,17.90
2023-06-04T09:39:01.892Z,17.90
2023-06-04T09:41:28.721Z,17.90
2023-06-04T09:44:05.316Z,18.00
2023-06-04T09:46:32.441Z,18.10
2023-06-04T09:49:03.997Z,18.20
2023-06-04T09:51:31.856Z,18.30
2023-06-04T09:54:00.113Z,18.40
2023-06-04T09:56:27.851Z,18.60
2023-06-04T09:59:02.495Z,18.70
2023-06-04T10:01:30.099Z,18.80
2023-06-04T10:03:58.159Z,18.90
2023-06-04T10:06:25.496Z,19.10
2023-06-04T10:08:52.374Z,19.40
2023-06-04T10:11:22.478Z,19.80
2023-06-04T10:13:56.235Z,20.20
2023-06-04T10:16:33.468Z,20.50
2023-06-04T10:19:02.185Z,20.70
2023-06-04T10:21:29.210Z,20.70
2023-06-04T10:23:56.106Z,20.90
2023-06-04T10:26:23.102Z,21.20
2023-06-04T10:28:50.032Z,21.40
2023-06-04T10:31:16.979Z,21.70
2023-06-04T10:33:43.859Z,21.80
2023-06-04T10:36:21.207Z,22.00
2023-06-04T10:38:54.443Z,22.10
2023-06-04T10:41:24.743Z,22.20
2023-06-04T10:43:52.744Z,22.20
2023-06-04T10:46:20.999Z,22.30
2023-06-04T10:48:51.721Z,22.40
2023-06-04T10:51:33.574Z,22.40
2023-06-04T10:54:02.193Z,22.00
2023-06-04T10:56:39.089Z,21.80
2023-06-04T10:59:18.972Z,21.60
2023-06-04T11:01:46.058Z,21.40
2023-06-04T11:04:23.476Z,21.30
2023-06-04T11:07:05.519Z,21.20
2023-06-04T11:09:34.565Z,21.10
2023-06-04T11:12:02.018Z,21.00
2023-06-04T11:14:28.836Z,21.10
2023-06-04T11:16:55.645Z,21.10
2023-06-04T11:19:22.552Z,20.90
2023-06-04T11:21:50.252Z,20.80
2023-06-04T11:24:17.595Z,20.80
2023-06-04T11:26:53.526Z,20.80
2023-06-04T11:29:21.240Z,20.90
2023-06-04T11:31:49.047Z,20.90
2023-06-04T11:34:29.118Z,20.90
2023-06-04T11:36:56.009Z,21.00
2023-06-04T11:39:23.508Z,21.00
2023-06-04T11:41:51.596Z,20.90
2023-06-04T11:44:21.764Z,21.00
2023-06-04T11:46:49.788Z,21.10
2023-06-04T11:49:16.893Z,21.10
2023-06-04T11:51:53.339Z,21.10
2023-06-04T11:54:21.170Z,21.10
2023-06-04T11:56:50.559Z,21.10
2023-06-04T11:59:17.894Z,21.10
2023-06-04T12:01:45.979Z,21.10
2023-06-04T12:04:14.195Z,21.10
2023-06-04T12:06:54.905Z,21.00
2023-06-04T12:09:23.177Z,21.00
2023-06-04T12:11:50.080Z,21.00
2023-06-04T12:14:19.347Z,21.00
2023-06-04T12:16:58.741Z,21.20
2023-06-04T12:19:25.742Z,21.30
2023-06-04T12:22:05.989Z,21.30
2023-06-04T12:24:35.423Z,21.30
2023-06-04T12:27:05.978Z,21.40
2023-06-04T12:29:32.904Z,21.50
2023-06-04T12:32:18.078Z,21.50
2023-06-04T12:34:44.828Z,21.50
2023-06-04T12:37:11.604Z,21.50
2023-06-04T12:39:38.456Z,21.50
2023-06-04T12:42:07.888Z,21.60
2023-06-04T12:44:36.626Z,21.60
2023-06-04T12:47:04.325Z,21.70
2023-06-04T12:49:31.164Z,21.70
2023-06-04T12:51:58.214Z,21.80
2023-06-04T12:54:25.233Z,21.90
2023-06-04T12:56:52.041Z,21.90
2023-06-04T12:59:18.878Z,22.10
2023-06-04T13:01:45.962Z,22.20
2023-06-04T13:04:13.141Z,22.20
2023-06-04T13:06:40.147Z,22.10
2023-06-04T13:09:10.042Z,22.10
2023-06-04T13:11:39.307Z,22.10
2023-06-04T13:14:06.156Z,22.10
2023-06-04T13:16:33.182Z,22.10
2023-06-04T13:19:00.066Z,22.20
2023-06-04T13:21:26.882Z,22.30
2023-06-04T13:23:53.900Z,22.20
2023-06-04T13:26:21.097Z,22.30
2023-06-04T13:28:48.200Z,22.30
2023-06-04T13:31:15.019Z,22.40
2023-06-04T13:33:42.679Z,22.40
2023-06-04T13:36:09.476Z,22.40
2023-06-04T13:38:36.404Z,22.40
2023-06-04T13:41:03.209Z,22.40
2023-06-04T13:43:30.170Z,22.50
2023-06-04T13:45:57.540Z,22.60
2023-06-04T13:48:24.413Z,22.60
2023-06-04T13:50:51.454Z,22.50
2023-06-04T13:53:18.819Z,22.60
2023-06-04T13:55:46.276Z,22.80
2023-06-04T13:58:13.209Z,23.00
2023-06-04T14:00:40.139Z,23.20
2023-06-04T14:03:07.084Z,23.40
2023-06-04T14:05:33.964Z,24.00
2023-06-04T14:08:00.884Z,24.60
2023-06-04T14:10:27.722Z,25.10
2023-06-04T14:12:54.559Z,25.60
2023-06-04T14:15:21.442Z,26.10
2023-06-04T14:17:48.834Z,26.20
2023-06-04T14:20:15.798Z,26.40
2023-06-04T14:22:42.662Z,26.70
2023-06-04T14:25:10.102Z,26.80
2023-06-04T14:27:37.058Z,26.90
2023-06-04T14:30:04.799Z,27.30
2023-06-04T14:32:31.847Z,27.60
2023-06-04T14:34:58.832Z,27.50
2023-06-04T14:37:25.686Z,27.50
2023-06-04T14:39:52.473Z,27.70
2023-06-04T14:42:19.371Z,28.00
2023-06-04T14:44:46.963Z,28.00
2023-06-04T14:47:13.788Z,27.90
2023-06-04T14:49:40.771Z,28.10
2023-06-04T14:52:07.632Z,28.50
2023-06-04T14:54:35.894Z,28.40
2023-06-04T14:57:03.077Z,28.20
2023-06-04T14:59:29.972Z,28.30
2023-06-04T15:01:56.979Z,28.40
2023-06-04T15:04:23.937Z,28.40
2023-06-04T15:06:50.949Z,28.20
2023-06-04T15:09:17.717Z,28.10
2023-06-04T15:11:44.517Z,28.20
2023-06-04T15:14:11.363Z,28.30
2023-06-04T15:16:38.212Z,28.60
2023-06-04T15:19:05.188Z,28.70
2023-06-04T15:21:32.014Z,28.60
2023-06-04T15:23:58.918Z,28.50
2023-06-04T15:26:27.871Z,28.80
2023-06-04T15:28:57.494Z,28.70
2023-06-04T15:31:24.610Z,28.90
2023-06-04T15:33:51.552Z,28.70
2023-06-04T15:36:19.250Z,28.70
2023-06-04T15:38:46.230Z,28.80
2023-06-04T15:41:13.187Z,28.90
2023-06-04T15:43:40.017Z,28.90
2023-06-04T15:46:06.933Z,28.80
2023-06-04T15:48:33.830Z,28.90
2023-06-04T15:51:00.670Z,28.90
2023-06-04T15:53:27.437Z,28.80
2023-06-04T15:55:54.185Z,28.70
2023-06-04T15:58:21.233Z,28.70
2023-06-04T16:00:48.042Z,28.50
2023-06-04T16:03:14.917Z,28.40
2023-06-04T16:05:41.958Z,28.40
2023-06-04T16:08:09.013Z,28.70
2023-06-04T16:10:35.872Z,28.90
2023-06-04T16:13:02.682Z,28.80
2023-06-04T16:15:29.473Z,28.80
2023-06-04T16:17:56.537Z,28.80
2023-06-04T16:20:23.632Z,28.30
2023-06-04T16:22:51.295Z,28.30
2023-06-04T16:25:19.132Z,28.70
2023-06-04T16:27:46.523Z,28.80
2023-06-04T16:30:14.484Z,28.40
2023-06-04T16:32:41.481Z,28.40
2023-06-04T16:35:10.485Z,28.70
2023-06-04T16:37:40.458Z,28.60
2023-06-04T16:40:07.750Z,28.60
2023-06-04T16:42:34.697Z,28.40
2023-06-04T16:45:01.519Z,28.30
2023-06-04T16:47:28.520Z,28.60
2023-06-04T16:49:55.995Z,28.50
2023-06-04T16:52:22.895Z,28.50
2023-06-04T16:54:49.675Z,28.60
2023-06-04T16:57:16.830Z,28.50
2023-06-04T16:59:46.912Z,28.60
2023-06-04T17:02:14.504Z,28.60
2023-06-04T17:04:42.203Z,28.20
2023-06-04T17:07:08.996Z,28.30
2023-06-04T17:09:35.922Z,28.20
2023-06-04T17:12:02.841Z,28.20
2023-06-04T17:14:29.829Z,27.90
2023-06-04T17:16:56.667Z,27.90
2023-06-04T17:19:23.856Z,27.80
2023-06-04T17:21:50.827Z,27.70
2023-06-04T17:24:17.882Z,27.70
2023-06-04T17:26:44.831Z,27.50
2023-06-04T17:29:11.801Z,27.30
2023-06-04T17:31:38.657Z,27.30
2023-06-04T17:34:05.461Z,27.10
2023-06-04T17:36:32.557Z,27.10
2023-06-04T17:38:59.363Z,27.30
2023-06-04T17:41:27.691Z,27.30
2023-06-04T17:43:55.920Z,27.20
2023-06-04T17:46:22.868Z,27.30
2023-06-04T17:48:49.648Z,27.40
2023-06-04T17:51:17.487Z,27.10
2023-06-04T17:53:44.298Z,26.90
2023-06-04T17:56:11.044Z,26.60
2023-06-04T17:58:37.939Z,26.30
2023-06-04T18:01:04.777Z,26.10
2023-06-04T18:03:32.302Z,26.00
2023-06-04T18:05:59.131Z,25.80
2023-06-04T18:08:26.100Z,25.70
2023-06-04T18:10:53.844Z,25.80
2023-06-04T18:13:23.509Z,25.70
2023-06-04T18:15:50.399Z,25.70
2023-06-04T18:18:17.849Z,25.70
2023-06-04T18:20:44.704Z,25.50
2023-06-04T18:23:13.432Z,25.40
2023-06-04T18:25:40.441Z,25.10
2023-06-04T18:28:07.318Z,25.20
2023-06-04T18:30:34.167Z,25.10
2023-06-04T18:33:01.287Z,24.60
2023-06-04T18:35:28.198Z,24.20
2023-06-04T18:37:55.010Z,23.70
2023-06-04T18:40:21.888Z,23.70
2023-06-04T18:42:48.669Z,24.00
2023-06-04T18:45:15.511Z,24.00
2023-06-04T18:47:42.428Z,23.80
2023-06-04T18:50:09.789Z,23.40
2023-06-04T18:52:39.195Z,23.20
2023-06-04T18:55:08.098Z,22.50
2023-06-04T18:57:35.887Z,22.00
2023-06-04T19:00:08.506Z,21.50
2023-06-04T19:02:38.696Z,21.10
2023-06-04T19:05:07.662Z,20.70
2023-06-04T19:07:36.840Z,20.40
2023-06-04T19:10:03.990Z,20.10
2023-06-04T19:12:30.944Z,19.80
2023-06-04T19:14:57.749Z,19.60
2023-06-04T19:17:25.642Z,19.30
2023-06-04T19:19:53.349Z,19.10
2023-06-04T19:22:20.901Z,19.10
2023-06-04T19:24:48.732Z,19.10
2023-06-04T19:27:18.692Z,19.00
2023-06-04T19:29:46.704Z,18.80
2023-06-04T19:32:13.816Z,18.70
2023-06-04T19:34:40.772Z,18.40
2023-06-04T19:37:07.651Z,18.30
2023-06-04T19:39:34.563Z,18.30
2023-06-04T19:42:01.457Z,18.10
2023-06-04T19:44:28.294Z,18.10
2023-06-04T19:46:56.071Z,18.00
2023-06-04T19:49:23.080Z,17.90
2023-06-04T19:51:50.117Z,17.70
2023-06-04T19:54:17.240Z,17.50
2023-06-04T19:56:44.045Z,17.40
2023-06-04T19:59:10.964Z,17.30
2023-06-04T20:01:38.126Z,17.20
2023-06-04T20:04:06.435Z,17.20
2023-06-04T20:06:33.334Z,17.10
2023-06-04T20:09:00.612Z,16.90
2023-06-04T20:11:28.049Z,16.80
2023-06-04T20:13:54.837Z,16.80
2023-06-04T20:16:21.842Z,16.70
2023-06-04T20:18:49.894Z,16.70
2023-06-04T20:21:16.791Z,16.60
2023-06-04T20:23:43.743Z,16.50
2023-06-04T20:26:10.820Z,16.40
2023-06-04T20:28:37.685Z,16.30
2023-06-04T20:31:04.504Z,16.10
2023-06-04T20:33:31.527Z,16.00
2023-06-04T20:35:58.510Z,16.00
2023-06-04T20:38:25.553Z,15.90
2023-06-04T20:40:52.544Z,15.90
2023-06-04T20:43:19.683Z,15.90
2023-06-04T20:45:46.687Z,15.80
2023-06-04T20:48:13.607Z,15.70
2023-06-04T20:50:40.464Z,15.60
2023-06-04T20:53:07.427Z,15.50
2023-06-04T20:55:36.399Z,15.40
2023-06-04T20:58:03.301Z,15.30
2023-06-04T21:00:30.646Z,15.30
2023-06-04T21:02:57.550Z,15.20
2023-06-04T21:05:24.390Z,15.10
2023-06-04T21:07:51.957Z,15.10
2023-06-04T21:10:18.860Z,15.00
2023-06-04T21:12:45.878Z,15.00
2023-06-04T21:15:12.660Z,14.90
2023-06-04T21:17:39.603Z,14.80
2023-06-04T21:20:07.336Z,14.70
2023-06-04T21:22:34.243Z,14.70
2023-06-04T21:25:01.086Z,14.70
2023-06-04T21:27:28.026Z,14.60
2023-06-04T21:29:55.164Z,14.60
2023-06-04T21:32:22.100Z,14.60
2023-06-04T21:34:49.589Z,14.60
2023-06-04T21:37:16.816Z,14.50
2023-06-04T21:39:44.046Z,14.40
2023-06-04T21:42:10.875Z,14.40
2023-06-04T21:44:37.965Z,14.30
2023-06-04T21:47:05.191Z,14.30
2023-06-04T21:49:32.055Z,14.30
2023-06-04T21:51:58.900Z,14.30
2023-06-04T21:54:25.941Z,14.30
2023-06-04T21:56:52.803Z,14.20
2023-06-04T21:59:19.710Z,14.20
2023-06-04T22:01:48.309Z,14.20
2023-06-04T22:04:15.239Z,14.10
2023-06-04T22:06:42.024Z,14.20
2023-06-04T22:09:08.847Z,14.10
2023-06-04T22:11:36.081Z,14.10
2023-06-04T22:14:03.038Z,14.10
2023-06-04T22:16:29.950Z,14.00
2023-06-04T22:18:56.940Z,14.00
2023-06-04T22:21:23.734Z,13.90
2023-06-04T22:23:50.675Z,13.90
2023-06-04T22:26:32.930Z,13.90
2023-06-04T22:29:04.577Z,13.90
2023-06-04T22:31:31.495Z,13.80
2023-06-04T22:33:58.358Z,13.80
2023-06-04T22:36:26.416Z,13.80
2023-06-04T22:38:53.383Z,13.80
2023-06-04T22:41:20.231Z,13.80
2023-06-04T22:43:47.163Z,13.70
2023-06-04T22:46:14.132Z,13.70
2023-06-04T22:48:41.830Z,13.70
2023-06-04T22:51:08.976Z,13.70
2023-06-04T22:53:35.909Z,13.60
2023-06-04T22:56:07.297Z,13.60
2023-06-04T22:58:34.402Z,13.60
2023-06-04T23:01:01.250Z,13.50
2023-06-04T23:03:28.754Z,13.50
2023-06-04T23:05:55.691Z,13.50
2023-06-04T23:08:22.486Z,13.40
2023-06-04T23:10:49.322Z,13.40
2023-06-04T23:13:16.275Z,13.30
2023-06-04T23:15:43.163Z,13.30
2023-06-04T23:18:10.243Z,13.20
2023-06-04T23:20:37.164Z,13.20
2023-06-04T23:23:04.023Z,13.10
2023-06-04T23:25:30.861Z,13.10
2023-06-04T23:27:57.683Z,13.20
2023-06-04T23:30:24.507Z,13.10
2023-06-04T23:32:51.630Z,13.10
2023-06-04T23:35:18.473Z,13.00
2023-06-04T23:37:46.018Z,13.00
2023-06-04T23:40:13.119Z,12.80
2023-06-04T23:42:39.868Z,12.80
2023-06-04T23:45:07.139Z,12.80
2023-06-04T23:47:33.942Z,12.70
2023-06-04T23:50:00.756Z,12.70
2023-06-04T23:52:27.555Z,12.70
2023-06-04T23:54:54.325Z,12.80
2023-06-04T23:57:21.127Z,12.80
2023-06-04T23:59:47.996Z,12.80
